Latest Weather Observations for Cape Willoughby

IDS60801

Issued at 12:32 am CST Wednesday 23 September 2020 (issued every 10 minutes, with the page automatically refreshed every 10 minutes)

About weather observations | Map of weather stations | Latest weather observations for SA | Other Formats
Station Details ID: 022803 Name: CAPE WILLOUGHBY Lat: -35.84 Lon: 138.13 Height: 55.0 m
Data from the previous 72 hours. | See also: Recent months at Cape Willoughby
Date/Time
CST
Temp
°C
App
Temp
°C
Dew
Point
°C
Rel
Hum
%
Delta-T
°C
Wind Press
QNH
hPa
Press
MSL
hPa
Rain since
9am
mm
Dir  Spd
km/h
Gust
km/h
Spd
kts
Gust
kts
23/12:30am 9.5 4.1 7.9 90 0.8 W 26 35 14 19 1015.6 1015.6 0.4
23/12:00am 9.7 4.3 7.8 88 0.9 W 26 33 14 18 1015.6 1015.6 0.4
 
Date/Time
CST
Temp
°C
App
Temp
°C
Dew
Point
°C
Rel
Hum
%
Delta-T
°C
Wind Press
QNH
hPa
Press
MSL
hPa
Rain since
9am
mm
Dir  Spd
km/h
Gust
km/h
Spd
kts
Gust
kts
22/11:30pm 9.9 4.0 7.7 86 1.1 WNW 28 37 15 20 1015.6 1015.6 0.4
22/11:00pm 10.3 4.4 7.7 84 1.3 WNW 28 33 15 18 1015.5 1015.5 0.4
22/10:30pm 10.8 5.0 8.0 83 1.4 WNW 28 37 15 20 1015.5 1015.5 0.4
22/10:00pm 10.7 4.9 7.9 83 1.4 WNW 28 35 15 19 1015.6 1015.6 0.4
22/09:30pm 10.5 5.5 7.9 84 1.3 WNW 24 28 13 15 1015.6 1015.6 0.4
22/09:00pm 10.4 5.3 7.6 83 1.3 WNW 24 30 13 16 1015.5 1015.5 0.4
22/08:30pm 10.8 5.3 7.5 80 1.6 WNW 26 33 14 18 1015.2 1015.2 0.4
22/08:00pm 11.2 6.0 7.3 77 1.9 WNW 24 32 13 17 1015.0 1015.0 0.4
22/07:30pm 11.3 6.2 7.6 78 1.8 WNW 24 32 13 17 1014.8 1014.8 0.4
22/07:00pm 11.4 7.1 7.7 78 1.8 W 20 28 11 15 1014.4 1014.4 0.4
22/06:30pm 11.9 6.5 7.8 76 2.0 W 26 37 14 20 1014.0 1014.0 0.4
22/06:00pm 11.8 6.8 7.9 77 1.9 W 24 35 13 19 1013.7 1013.7 0.4
22/05:34pm 12.9 8.4 8.6 75 2.2 WNW 22 50 12 27 1013.6 1013.6 0.4
22/05:30pm 12.9 8.9 9.2 78 1.9 NW 20 26 11 14 1013.5 1013.5 0.4
22/05:00pm 13.5 8.1 8.1 70 2.7 W 26 41 14 22 1013.0 1013.0 0.4
22/04:30pm 13.3 5.4 8.0 70 2.6 W 39 54 21 29 1012.5 1012.5 0.4
22/04:00pm 13.9 8.2 8.3 69 2.8 WSW 28 48 15 26 1011.9 1011.9 0.4
22/03:30pm 14.3 7.0 8.7 69 2.8 WSW 37 50 20 27 1012.0 1012.0 0.4
22/03:04pm 14.7 8.3 8.4 66 3.2 SW 32 50 17 27 1011.5 1011.5 0.4
22/03:00pm 14.7 8.3 8.4 66 3.2 SW 32 44 17 24 1011.6 1011.6 0.4
22/02:30pm 14.9 8.0 8.8 67 3.1 SW 35 48 19 26 1011.3 1011.3 0.4
22/02:00pm 14.9 8.1 6.7 58 4.0 W 32 50 17 27 1011.2 1011.2 0.4
22/01:30pm 15.2 9.0 8.0 62 3.6 W 30 50 16 27 1011.2 1011.2 0.4
22/01:25pm 15.5 9.8 8.5 63 3.6 W 28 48 15 26 1011.2 1011.2 0.4
22/01:00pm 14.4 7.2 7.7 64 3.3 WSW 35 52 19 28 1011.1 1011.1 0.4
22/12:30pm 13.3 4.8 8.6 73 2.4 WSW 43 54 23 29 1011.0 1011.0 0.4
22/12:21pm 14.4 8.0 9.2 71 2.7 WSW 33 52 18 28 1010.9 1010.9 0.4
22/12:00pm 14.6 8.7 9.2 70 2.8 WSW 30 41 16 22 1010.9 1010.9 0.4
22/11:30am 14.6 7.7 8.8 68 3.0 W 35 46 19 25 1010.7 1010.7 0.4
22/11:00am 14.5 9.6 10.1 75 2.3 W 26 41 14 22 1010.7 1010.7 0.4
22/10:35am 12.3 5.9 9.5 83 1.4 W 33 54 18 29 1010.6 1010.6 0.4
22/10:30am 12.6 5.9 9.8 83 1.4 WSW 35 54 19 29 1010.5 1010.5 0.4
22/10:29am 12.6 6.3 9.6 82 1.5 WSW 33 54 18 29 1010.5 1010.5 0.4
22/10:07am 13.0 6.5 9.1 77 2.0 W 33 48 18 26 1010.2 1010.2 0.4
22/10:00am 14.3 8.1 9.5 73 2.5 WNW 32 43 17 23 1010.1 1010.1 0.4
22/09:30am 12.7 6.5 9.5 81 1.6 WNW 32 43 17 23 1009.8 1009.8 0.4
22/09:04am 13.6 6.3 8.7 72 2.5 WNW 37 57 20 31 1009.2 1009.2 0.0
22/09:00am 14.2 7.3 9.0 71 2.7 WNW 35 48 19 26 1009.2 1009.2 1.4
22/08:30am 13.6 6.7 8.7 72 2.5 WNW 35 46 19 25 1008.8 1008.8 1.4
22/08:00am 12.9 5.1 8.4 74 2.2 WNW 39 56 21 30 1008.2 1008.2 1.4
22/07:51am 12.7 5.3 8.4 75 2.1 WNW 37 56 20 30 1008.0 1008.0 1.4
22/07:30am 12.5 5.4 8.2 75 2.1 WNW 35 48 19 26 1007.7 1007.7 1.4
22/07:10am 12.0 4.5 8.1 77 1.9 WNW 37 57 20 31 1007.4 1007.4 1.4
22/07:00am 11.7 5.0 8.2 79 1.7 NW 33 44 18 24 1007.4 1007.4 1.4
22/06:30am 11.4 4.7 8.1 80 1.6 NW 33 46 18 25 1006.8 1006.8 1.4
22/06:00am 11.1 4.4 8.1 82 1.5 WNW 33 46 18 25 1006.5 1006.5 1.4
22/05:30am 11.0 3.9 7.9 81 1.5 NW 35 50 19 27 1006.0 1006.0 1.4
22/05:00am 11.4 3.1 7.9 79 1.7 NW 41 54 22 29 1005.6 1005.6 1.4
22/04:30am 11.4 2.7 7.7 78 1.8 NW 43 57 23 31 1005.3 1005.3 1.4
22/04:19am 11.4 4.3 7.9 79 1.7 NW 35 54 19 29 1005.2 1005.2 1.4
22/04:00am 11.3 3.4 7.8 79 1.7 WNW 39 52 21 28 1005.2 1005.2 1.4
22/03:42am 11.4 4.0 8.3 81 1.5 NW 37 65 20 35 1005.1 1005.1 1.4
22/03:30am 11.1 4.0 8.0 81 1.5 NW 35 48 19 26 1005.2 1005.2 1.4
22/03:00am 11.2 4.6 7.9 80 1.6 NW 32 41 17 22 1005.3 1005.3 1.4
22/02:33am 11.8 4.0 8.1 78 1.8 NW 39 63 21 34 1005.1 1005.1 1.4
22/02:30am 11.9 4.8 8.0 77 1.9 NW 35 52 19 28 1005.2 1005.2 1.4
22/02:27am 11.7 5.2 8.0 78 1.8 NW 32 52 17 28 1005.4 1005.4 1.4
22/02:00am 11.4 5.2 7.7 78 1.8 NW 30 35 16 19 1005.6 1005.6 1.4
22/01:30am 11.2 4.4 7.7 79 1.7 NW 33 52 18 28 1005.8 1005.8 1.2
22/01:28am 11.2 4.6 7.9 80 1.6 NW 32 50 17 27 1005.8 1005.8 1.2
22/01:00am 11.3 4.0 7.2 76 2.0 WNW 35 46 19 25 1005.9 1005.9 1.2
22/12:30am 11.9 4.4 8.0 77 1.9 NW 37 48 20 26 1005.7 1005.7 1.2
22/12:00am 11.8 4.8 8.3 79 1.7 NW 35 46 19 25 1005.8 1005.8 1.2
 
Date/Time
CST
Temp
°C
App
Temp
°C
Dew
Point
°C
Rel
Hum
%
Delta-T
°C
Wind Press
QNH
hPa
Press
MSL
hPa
Rain since
9am
mm
Dir  Spd
km/h
Gust
km/h
Spd
kts
Gust
kts
21/11:30pm 11.6 5.1 8.1 79 1.7 WNW 32 41 17 22 1005.9 1005.9 1.2
21/11:00pm 12.2 5.0 7.7 74 2.2 NW 35 54 19 29 1005.9 1005.9 1.2
21/10:30pm 11.6 5.7 7.5 76 2.0 NW 28 35 15 19 1005.9 1005.9 1.2
21/10:00pm 11.6 4.9 8.1 79 1.7 WNW 33 46 18 25 1005.9 1005.9 1.2
21/09:30pm 11.3 6.1 9.0 86 1.2 NW 26 39 14 21 1005.8 1005.8 1.2
21/09:00pm 11.4 5.9 9.3 87 1.1 NW 28 37 15 20 1005.6 1005.6 1.2
21/08:30pm 11.2 5.0 9.3 88 1.0 WNW 32 43 17 23 1005.4 1005.4 1.2
21/08:02pm 12.2 5.4 9.4 83 1.4 WNW 35 54 19 29 1005.1 1005.1 0.8
21/08:00pm 12.4 6.0 9.4 82 1.5 WNW 33 46 18 25 1005.1 1005.1 0.4
21/07:30pm 12.4 7.0 9.4 82 1.5 WNW 28 41 15 22 1004.5 1004.5 0.4
21/07:00pm 12.3 6.1 9.5 83 1.4 NW 32 39 17 21 1004.2 1004.1 0.4
21/06:30pm 13.3 6.9 8.4 72 2.5 NW 32 43 17 23 1003.9 1003.8 0.0
21/06:00pm 13.5 5.0 8.4 71 2.6 NW 43 56 23 30 1003.6 1003.5 0.0
21/05:34pm 13.9 7.6 8.9 72 2.5 NW 32 52 17 28 1003.6 1003.5 0.0
21/05:30pm 13.9 7.1 9.1 73 2.5 NW 35 48 19 26 1003.4 1003.3 0.0
21/05:01pm 14.4 7.9 8.8 69 2.8 NW 33 52 18 28 1003.0 1002.9 0.0
21/05:00pm 14.4 7.9 8.8 69 2.8 NW 33 48 18 26 1003.1 1003.0 0.0
21/04:35pm 14.5 6.2 9.5 72 2.6 NW 43 63 23 34 1002.5 1002.4 0.0
21/04:30pm 14.3 7.3 10.1 76 2.2 NW 37 52 20 28 1002.6 1002.5 0.0
21/04:00pm 13.4 5.8 10.4 82 1.6 NW 41 61 22 33 1002.8 1002.7 0.0
21/03:35pm 15.6 6.0 7.9 60 3.9 NW 48 67 26 36 1002.5 1002.4 0.0
21/03:30pm 15.8 5.9 8.1 60 3.9 NW 50 69 27 37 1002.4 1002.3 0.0
21/03:00pm 16.4 7.2 7.9 57 4.3 NW 46 69 25 37 1002.2 1002.1 0.0
21/02:30pm 16.5 6.2 8.0 57 4.3 NW 52 78 28 42 1002.1 1002.0 0.0
21/02:00pm 16.2 4.3 7.2 55 4.5 NW 59 83 32 45 1001.8 1001.7 0.0
21/01:30pm 16.4 4.9 7.1 54 4.6 NW 57 78 31 42 1001.9 1001.8 0.0
21/01:00pm 15.9 3.6 7.1 56 4.4 NW 61 87 33 47 1001.6 1001.5 0.0
21/12:41pm 16.6 6.0 8.3 58 4.2 NW 54 82 29 44 1001.7 1001.6 0.0
21/12:39pm 16.8 6.5 9.7 63 3.7 NW 54 82 29 44 1001.9 1001.8 0.0
21/12:30pm 16.1 4.0 9.3 64 3.5 NW 63 85 34 46 1001.4 1001.3 0.0
21/12:00pm 16.4 5.1 9.6 64 3.6 NW 59 80 32 43 1001.4 1001.3 0.0
21/11:30am 16.0 4.5 8.7 62 3.8 NNW 59 87 32 47 1001.0 1001.0 0.0
21/11:00am 15.6 4.1 8.8 64 3.5 NNW 59 82 32 44 1001.0 1001.0 0.0
21/10:30am 15.9 2.1 7.7 58 4.1 NNW 70 95 38 51 1000.7 1000.7 0.0
21/10:14am 15.4 1.2 9.1 66 3.2 N 74 93 40 50 1000.1 1000.1 0.0
21/10:00am 14.4 0.4 8.6 68 2.9 N 72 83 39 45 1000.2 1000.2 0.0
21/09:30am 14.5 -0.4 8.2 66 3.2 N 76 91 41 49 1000.2 1000.2 0.0
21/09:00am 14.3 1.3 8.7 69 2.9 N 67 80 36 43 1001.0 1001.0 0.4
21/08:30am 14.1 2.1 8.3 68 2.9 N 61 70 33 38 1001.6 1001.5 0.4
21/08:00am 13.6 1.0 8.7 72 2.5 N 65 76 35 41 1001.7 1001.6 0.4
21/07:30am 13.2 1.7 8.7 74 2.3 N 59 69 32 37 1002.0 1001.9 0.4
21/07:00am 12.9 1.8 8.6 75 2.2 N 57 63 31 34 1002.2 1002.1 0.4
21/06:30am 12.7 3.5 7.8 72 2.4 NNW 46 61 25 33 1002.6 1002.5 0.4
21/06:11am 12.5 3.8 7.8 73 2.3 NNW 43 61 23 33 1002.8 1002.7 0.4
21/06:00am 12.5 3.7 8.2 75 2.1 NNW 44 63 24 34 1002.8 1002.7 0.4
21/05:30am 12.5 4.6 7.8 73 2.3 NNW 39 54 21 29 1003.2 1003.1 0.4
21/05:00am 12.4 5.1 7.1 70 2.6 NNW 35 46 19 25 1003.4 1003.3 0.4
21/04:30am 12.3 5.8 8.2 76 2.0 NNW 32 50 17 27 1003.3 1003.2 0.4
21/04:00am 11.8 5.9 7.5 75 2.1 NNW 28 32 15 17 1003.3 1003.2 0.4
21/03:30am 12.2 6.8 7.9 75 2.1 NNW 26 37 14 20 1003.4 1003.3 0.4
21/03:00am 12.1 5.9 8.0 76 2.0 NW 30 35 16 19 1003.6 1003.5 0.4
21/02:30am 11.9 7.1 7.4 74 2.2 NNW 22 28 12 15 1004.1 1004.0 0.4
21/02:00am 11.6 7.1 6.9 73 2.2 NNW 20 30 11 16 1004.8 1004.8 0.4
21/01:30am 11.7 7.4 7.2 74 2.2 NW 19 26 10 14 1005.2 1005.2 0.4
21/01:00am 12.4 6.8 7.3 71 2.5 NNW 26 35 14 19 1005.1 1005.1 0.4
21/12:30am 12.4 7.9 6.9 69 2.7 NW 20 30 11 16 1005.4 1005.4 0.4
21/12:00am 12.5 5.0 6.5 67 2.9 WNW 35 50 19 27 1004.6 1004.6 0.4
 
Date/Time
CST
Temp
°C
App
Temp
°C
Dew
Point
°C
Rel
Hum
%
Delta-T
°C
Wind Press
QNH
hPa
Press
MSL
hPa
Rain since
9am
mm
Dir  Spd
km/h
Gust
km/h
Spd
kts
Gust
kts
20/11:30pm 12.9 6.4 6.3 64 3.2 WNW 30 41 16 22 1005.0 1005.0 0.4
20/11:00pm 13.3 8.3 6.6 64 3.2 NW 22 35 12 19 1005.2 1005.2 0.4
20/10:30pm 13.7 10.5 8.3 70 2.7 NW 15 26 8 14 1005.5 1005.5 0.4
20/10:00pm 13.7 11.8 9.0 73 2.4 NNW 9 17 5 9 1005.2 1005.2 0.4
20/09:30pm 13.3 10.8 8.2 71 2.5 NW 11 19 6 10 1004.7 1004.7 0.4
20/09:00pm 13.6 8.7 8.4 71 2.6 WNW 24 32 13 17 1004.3 1004.2 0.4
20/08:30pm 13.8 11.4 8.8 72 2.5 NW 11 19 6 10 1004.1 1004.0 0.4
20/08:00pm 14.0 10.8 8.4 69 2.8 W 15 24 8 13 1003.5 1003.4 0.4
20/07:30pm 14.7 10.0 7.7 63 3.5 WNW 22 32 12 17 1003.5 1003.4 0.4
20/07:06pm 15.8 9.9 7.6 58 4.1 WNW 28 54 15 29 1002.4 1002.3 0.4
20/07:00pm 15.8 10.2 8.8 63 3.6 WNW 28 44 15 24 1002.3 1002.2 0.4
20/06:44pm 16.3 11.0 9.7 65 3.5 WNW 28 48 15 26 1001.7 1001.6 0.4
20/06:30pm 16.4 10.7 11.3 72 2.8 WNW 32 43 17 23 1001.0 1001.0 0.4
20/06:06pm 16.9 10.7 12.6 76 2.4 WNW 37 57 20 31 1000.0 1000.0 0.4
20/06:00pm 16.9 9.7 13.0 78 2.2 WNW 43 59 23 32 999.9 999.9 0.4
20/05:30pm 17.6 9.5 13.1 75 2.5 WNW 48 74 26 40 999.0 999.0 0.4
20/05:00pm 19.8 11.3 13.3 66 3.7 NW 50 70 27 38 998.0 998.0 0.4
20/04:36pm 19.0 10.6 13.6 71 3.1 NNW 50 69 27 37 997.6 997.6 0.4
20/04:30pm 19.2 10.1 13.6 70 3.2 NNW 54 70 29 38 997.5 997.5 0.4
20/04:23pm 19.6 11.1 14.4 72 3.0 N 52 69 28 37 997.4 997.4 0.4
20/04:00pm 19.3 11.5 13.0 67 3.6 N 46 54 25 29 996.4 996.4 0.0
20/03:30pm 20.6 12.1 13.1 62 4.3 N 50 59 27 32 996.7 996.7 0.0
20/03:00pm 20.3 11.7 13.0 63 4.2 N 50 57 27 31 997.6 997.6 0.0
20/02:30pm 20.0 12.8 13.2 65 3.9 N 43 50 23 27 998.0 998.0 0.0
20/02:00pm 19.1 13.9 13.3 69 3.3 N 33 39 18 21 998.7 998.7 0.0
20/01:30pm 18.5 13.7 14.0 75 2.6 NNE 32 35 17 19 999.6 999.6 0.0
20/01:00pm 18.4 12.3 14.1 76 2.5 NNE 39 46 21 25 1000.1 1000.1 0.0
20/12:30pm 18.0 12.0 14.3 79 2.1 N 39 46 21 25 1000.9 1000.9 0.0
20/12:00pm 18.6 10.9 14.5 77 2.4 N 48 57 26 31 1001.6 1001.5 0.0
20/11:30am 17.9 8.6 14.2 79 2.1 N 56 63 30 34 1002.2 1002.1 0.0
20/11:00am 17.4 7.7 13.5 78 2.2 N 57 67 31 36 1002.6 1002.5 0.0
20/10:30am 17.6 10.6 13.7 78 2.2 N 43 52 23 28 1003.5 1003.4 0.0
20/10:00am 17.0 11.5 13.7 81 1.9 N 35 43 19 23 1003.7 1003.6 0.0
20/09:30am 15.4 6.7 12.7 84 1.5 N 50 57 27 31 1003.8 1003.7 0.0
20/09:00am 15.2 7.4 12.9 86 1.3 N 46 56 25 30 1004.0 1003.9 0.0
20/08:30am 14.6 7.4 13.0 90 0.9 N 43 52 23 28 1004.2 1004.1 0.0
20/08:00am 14.8 7.5 13.3 91 0.8 N 44 52 24 28 1004.2 1004.1 0.0
20/07:30am 14.7 8.4 13.4 92 0.7 NNW 39 50 21 27 1004.4 1004.4 0.0
20/07:00am 14.0 8.7 13.1 94 0.5 NNW 33 44 18 24 1004.5 1004.5 0.0
20/06:30am 13.8 9.0 12.9 94 0.5 NNW 30 39 16 21 1004.2 1004.1 0.0
20/06:00am 13.9 9.1 12.8 93 0.6 NNW 30 43 16 23 1004.0 1003.9 0.0
20/05:30am 13.9 10.6 12.8 93 0.6 NNW 22 32 12 17 1004.3 1004.2 0.0
20/05:00am 14.0 10.7 12.7 92 0.7 NNW 22 28 12 15 1004.4 1004.4 0.0
20/04:30am 14.0 11.2 12.7 92 0.7 NNW 19 28 10 15 1004.7 1004.7 0.0
20/04:00am 13.8 11.0 12.7 93 0.6 NNW 19 28 10 15 1004.6 1004.6 0.0
20/03:30am 13.8 11.4 12.7 93 0.6 NNW 17 22 9 12 1004.4 1004.4 0.0
20/03:00am 13.7 10.7 12.4 92 0.7 NW 20 24 11 13 1004.4 1004.4 0.0
20/02:30am 14.1 10.4 12.8 92 0.7 NW 24 35 13 19 1004.6 1004.6 0.0
20/02:00am 13.6 10.8 12.5 93 0.6 NW 19 26 10 14 1005.0 1005.0 0.0
20/01:30am 13.6 10.6 12.5 93 0.6 NW 20 24 11 13 1005.3 1005.3 0.0
20/01:00am 13.7 10.6 12.3 91 0.8 NW 20 24 11 13 1005.2 1005.2 0.0

Other formats

Comma delimited format used in spreadsheet applications
http://www.bom.gov.au/fwo/IDS60801/IDS60801.94822.axf

JavaScript Object Notation format (JSON) in row-major order
http://www.bom.gov.au/fwo/IDS60801/IDS60801.94822.json

Data quality

Most of these data are generated automatically and are frequently updated. Quality checks on data are not normally performed. It is possible for incorrect values to appear. Refer to information at About Latest Weather Observations and please check the disclaimer before using these data.